createdAt,value
2018-09-11T00:01:01.456Z,15.50
2018-09-11T00:03:29.119Z,15.40
2018-09-11T00:05:56.739Z,15.40
2018-09-11T00:08:26.573Z,15.30
2018-09-11T00:10:54.299Z,15.30
2018-09-11T00:13:22.027Z,15.30
2018-09-11T00:15:49.659Z,15.20
2018-09-11T00:18:40.217Z,15.10
2018-09-11T00:21:07.869Z,15.10
2018-09-11T00:23:35.548Z,15.20
2018-09-11T00:26:03.248Z,15.00
2018-09-11T00:28:31.983Z,15.00
2018-09-11T00:31:00.160Z,14.80
2018-09-11T00:33:27.859Z,14.90
2018-09-11T00:35:55.598Z,14.90
2018-09-11T00:38:25.315Z,14.90
2018-09-11T00:40:53.072Z,14.90
2018-09-11T00:43:20.799Z,14.90
2018-09-11T00:45:48.487Z,14.80
2018-09-11T00:48:25.933Z,14.60
2018-09-11T00:50:53.676Z,14.50
2018-09-11T00:53:21.364Z,14.30
2018-09-11T00:55:49.262Z,14.40
2018-09-11T00:58:16.968Z,14.50
2018-09-11T01:00:44.685Z,14.50
2018-09-11T01:03:12.359Z,14.40
2018-09-11T01:05:40.040Z,14.40
2018-09-11T01:08:09.823Z,14.30
2018-09-11T01:10:37.372Z,14.40
2018-09-11T01:13:04.887Z,14.50
2018-09-11T01:15:32.419Z,14.50
2018-09-11T01:17:59.939Z,14.50
2018-09-11T01:20:27.483Z,14.40
2018-09-11T01:22:54.979Z,14.20
2018-09-11T01:25:22.503Z,14.20
2018-09-11T01:27:50.012Z,14.30
2018-09-11T01:30:20.965Z,14.20
2018-09-11T01:32:49.067Z,14.20
2018-09-11T01:35:16.613Z,14.30
2018-09-11T01:37:44.127Z,14.40
2018-09-11T01:40:11.719Z,14.40
2018-09-11T01:42:39.220Z,14.40
2018-09-11T01:45:06.785Z,14.40
2018-09-11T01:47:34.291Z,14.40
2018-09-11T01:50:01.956Z,14.30
2018-09-11T01:52:29.749Z,14.30
2018-09-11T01:54:57.383Z,14.30
2018-09-11T01:57:25.071Z,14.30
2018-09-11T02:00:25.215Z,14.20
2018-09-11T02:02:52.988Z,14.30
2018-09-11T02:05:20.723Z,14.20
2018-09-11T02:07:48.578Z,14.20
2018-09-11T02:10:16.255Z,14.20
2018-09-11T02:12:43.988Z,14.20
2018-09-11T02:15:11.812Z,14.30
2018-09-11T02:17:39.880Z,14.30
2018-09-11T02:20:07.655Z,14.30
2018-09-11T02:22:35.238Z,14.20
2018-09-11T02:25:02.751Z,14.00
2018-09-11T02:27:30.284Z,13.90
2018-09-11T02:29:58.895Z,13.90
2018-09-11T02:32:26.775Z,13.90
2018-09-11T02:34:54.303Z,13.90
2018-09-11T02:37:22.440Z,14.10
2018-09-11T02:40:20.073Z,14.00
2018-09-11T02:42:47.639Z,14.00
2018-09-11T02:45:15.207Z,13.90
2018-09-11T02:47:42.688Z,13.90
2018-09-11T02:53:18.568Z,13.80
2018-09-11T02:55:46.115Z,13.70
2018-09-11T02:58:16.863Z,13.60
2018-09-11T03:03:11.663Z,13.40
2018-09-11T03:05:39.179Z,13.30
2018-09-11T03:08:14.059Z,13.30
2018-09-11T03:10:41.600Z,13.40
2018-09-11T03:13:09.140Z,13.40
2018-09-11T03:15:36.658Z,13.30
2018-09-11T03:18:04.319Z,13.30
2018-09-11T03:20:31.884Z,13.30
2018-09-11T03:22:59.407Z,13.30
2018-09-11T03:25:26.915Z,13.30
2018-09-11T03:27:54.528Z,13.30
2018-09-11T03:30:22.048Z,13.30
2018-09-11T03:32:49.600Z,13.30
2018-09-11T03:35:17.171Z,13.30
2018-09-11T03:37:44.852Z,13.30
2018-09-11T03:42:41.935Z,13.20
2018-09-11T03:45:09.592Z,13.10
2018-09-11T03:47:37.258Z,13.10
2018-09-11T03:50:22.284Z,13.10
2018-09-11T03:52:49.970Z,13.10
2018-09-11T03:55:17.748Z,13.10
2018-09-11T03:57:45.520Z,13.10
2018-09-11T04:00:22.728Z,13.10
2018-09-11T04:02:50.399Z,13.00
2018-09-11T04:05:18.153Z,12.90
2018-09-11T04:07:45.881Z,12.90
2018-09-11T04:10:19.359Z,12.90
2018-09-11T04:12:47.048Z,12.90
2018-09-11T04:17:42.516Z,12.60
2018-09-11T04:20:10.259Z,12.60
2018-09-11T04:22:38.755Z,12.50
2018-09-11T04:25:06.471Z,12.50
2018-09-11T04:27:34.239Z,12.50
2018-09-11T04:30:07.476Z,12.60
2018-09-11T04:32:35.191Z,12.60
2018-09-11T04:35:02.851Z,12.50
2018-09-11T04:37:30.575Z,12.50
2018-09-11T04:40:05.449Z,12.50
2018-09-11T04:42:33.216Z,12.50
2018-09-11T04:45:00.936Z,12.50
2018-09-11T04:47:28.704Z,12.50
2018-09-11T04:49:58.433Z,12.50
2018-09-11T04:52:26.071Z,12.30
2018-09-11T04:54:53.860Z,12.20
2018-09-11T04:57:21.599Z,12.20
2018-09-11T04:59:56.764Z,12.30
2018-09-11T05:02:24.455Z,12.20
2018-09-11T05:04:52.199Z,12.10
2018-09-11T05:07:19.952Z,12.00
2018-09-11T05:09:56.504Z,12.00
2018-09-11T05:12:24.212Z,12.00
2018-09-11T05:17:19.252Z,11.90
2018-09-11T05:19:47.056Z,11.90
2018-09-11T05:22:14.812Z,11.90
2018-09-11T05:24:42.512Z,11.90
2018-09-11T05:27:10.188Z,11.90
2018-09-11T05:29:37.903Z,12.00
2018-09-11T05:32:05.672Z,12.00
2018-09-11T05:34:33.360Z,12.00
2018-09-11T05:37:01.081Z,12.00
2018-09-11T05:39:28.835Z,12.10
2018-09-11T05:41:56.588Z,12.20
2018-09-11T05:44:24.260Z,12.30
2018-09-11T05:46:51.961Z,12.30
2018-09-11T05:49:21.763Z,12.40
2018-09-11T05:51:49.476Z,12.50
2018-09-11T05:54:17.214Z,12.50
2018-09-11T05:56:44.952Z,12.70
2018-09-11T05:59:19.739Z,12.70
2018-09-11T06:01:47.510Z,12.70
2018-09-11T06:04:15.191Z,12.60
2018-09-11T06:06:42.892Z,12.70
2018-09-11T06:09:27.716Z,12.80
2018-09-11T06:11:55.248Z,12.80
2018-09-11T06:14:23.374Z,12.90
2018-09-11T06:16:50.955Z,12.90
2018-09-11T06:19:25.671Z,13.00
2018-09-11T06:21:53.232Z,13.10
2018-09-11T06:24:20.755Z,13.10
2018-09-11T06:26:48.279Z,13.30
2018-09-11T06:29:16.883Z,13.40
2018-09-11T06:31:44.366Z,13.50
2018-09-11T06:34:11.952Z,13.70
2018-09-11T06:36:39.498Z,13.70
2018-09-11T06:39:08.935Z,14.00
2018-09-11T06:41:36.507Z,14.20
2018-09-11T06:44:04.027Z,14.10
2018-09-11T06:46:31.827Z,14.40
2018-09-11T06:48:59.475Z,14.60
2018-09-11T06:51:27.055Z,14.80
2018-09-11T06:53:54.556Z,14.70
2018-09-11T06:56:22.191Z,14.70
2018-09-11T07:01:17.371Z,15.10
2018-09-11T07:03:44.899Z,15.20
2018-09-11T07:06:12.467Z,15.40
2018-09-11T07:08:47.351Z,15.60
2018-09-11T07:13:42.159Z,16.20
2018-09-11T07:18:37.011Z,16.70
2018-09-11T07:21:04.587Z,16.90
2018-09-11T07:23:32.111Z,17.10
2018-09-11T07:25:59.683Z,17.30
2018-09-11T07:30:55.504Z,17.70
2018-09-11T07:33:23.259Z,17.90
2018-09-11T07:35:50.964Z,18.20
2018-09-11T07:38:23.225Z,18.30
2018-09-11T07:43:18.282Z,18.70
2018-09-11T07:45:45.955Z,18.80
2018-09-11T07:48:14.792Z,18.80
2018-09-11T07:53:09.824Z,19.30
2018-09-11T07:55:37.487Z,19.60
2018-09-11T08:01:19.296Z,20.00
2018-09-11T08:03:46.943Z,20.30
2018-09-11T08:08:42.787Z,20.50
2018-09-11T08:11:10.636Z,20.60
2018-09-11T08:13:38.300Z,20.50
2018-09-11T08:16:05.932Z,20.60
2018-09-11T08:18:39.580Z,20.80
2018-09-11T08:21:07.553Z,20.90
2018-09-11T08:23:35.304Z,21.00
2018-09-11T08:26:03.002Z,20.90
2018-09-11T08:28:43.468Z,20.90
2018-09-11T08:31:11.168Z,21.00
2018-09-11T08:33:38.850Z,21.10
2018-09-11T08:36:06.575Z,21.10
2018-09-11T08:38:35.272Z,21.30
2018-09-11T08:41:02.989Z,21.60
2018-09-11T08:43:30.689Z,21.70
2018-09-11T08:45:58.420Z,21.70
2018-09-11T08:48:27.191Z,21.60
2018-09-11T08:50:54.910Z,21.70
2018-09-11T08:53:22.680Z,21.70
2018-09-11T08:55:50.967Z,21.90
2018-09-11T08:58:26.523Z,22.20
2018-09-11T09:00:54.363Z,22.30
2018-09-11T09:03:22.116Z,22.10
2018-09-11T09:05:50.312Z,22.00
2018-09-11T09:08:19.091Z,21.60
2018-09-11T09:10:46.787Z,21.70
2018-09-11T09:13:14.488Z,22.00
2018-09-11T09:15:42.198Z,21.80
2018-09-11T09:18:09.967Z,22.00
2018-09-11T09:20:37.638Z,22.20
2018-09-11T09:23:05.272Z,22.40
2018-09-11T09:25:32.957Z,22.60
2018-09-11T09:28:07.711Z,22.90
2018-09-11T09:30:35.412Z,22.80
2018-09-11T09:33:03.075Z,22.70
2018-09-11T09:37:58.167Z,22.40
2018-09-11T09:40:25.860Z,22.10
2018-09-11T09:42:53.631Z,22.00
2018-09-11T09:45:29.459Z,22.20
2018-09-11T09:47:57.059Z,22.50
2018-09-11T09:50:24.591Z,22.50
2018-09-11T09:52:52.147Z,22.10
2018-09-11T09:55:20.968Z,22.00
2018-09-11T10:07:44.127Z,23.90
2018-09-11T10:10:11.783Z,24.00
2018-09-11T10:12:39.577Z,24.00
2018-09-11T10:15:07.079Z,24.00
2018-09-11T10:17:35.439Z,24.10
2018-09-11T10:20:03.088Z,24.30
2018-09-11T10:22:30.923Z,24.00
2018-09-11T10:24:58.616Z,24.10
2018-09-11T10:27:26.311Z,24.10
2018-09-11T10:32:21.469Z,25.00
2018-09-11T10:34:49.168Z,24.90
2018-09-11T10:37:16.932Z,24.60
2018-09-11T10:39:48.112Z,24.80
2018-09-11T10:42:15.800Z,24.50
2018-09-11T10:44:43.479Z,24.70
2018-09-11T10:47:11.188Z,24.60
2018-09-11T10:49:41.008Z,24.80
2018-09-11T10:52:08.704Z,25.10
2018-09-11T10:54:36.380Z,25.30
2018-09-11T10:57:04.152Z,25.30
2018-09-11T10:59:33.947Z,25.30
2018-09-11T11:02:01.663Z,25.50
2018-09-11T11:04:29.332Z,25.20
2018-09-11T11:06:57.017Z,25.40
2018-09-11T11:09:33.541Z,25.60
2018-09-11T11:12:01.200Z,26.00
2018-09-11T11:14:28.928Z,27.20
2018-09-11T11:16:56.736Z,27.50
2018-09-11T11:19:28.005Z,27.30
2018-09-11T11:21:55.838Z,27.00
2018-09-11T11:24:23.483Z,27.20
2018-09-11T11:31:49.671Z,27.60
2018-09-11T11:34:17.401Z,27.20
2018-09-11T11:36:45.541Z,27.80
2018-09-11T11:42:07.007Z,27.10
2018-09-11T11:44:35.772Z,27.40
2018-09-11T11:47:03.490Z,27.50
2018-09-11T11:49:34.636Z,27.40
2018-09-11T11:52:02.217Z,29.30
2018-09-11T11:54:29.974Z,29.60
2018-09-11T11:56:57.705Z,29.20
2018-09-11T11:59:33.192Z,29.40
2018-09-11T12:02:02.257Z,29.30
2018-09-11T12:04:29.941Z,29.30
2018-09-11T12:09:25.028Z,28.80
2018-09-11T12:11:52.797Z,28.20
2018-09-11T12:14:20.463Z,27.60
2018-09-11T12:16:48.218Z,27.30
2018-09-11T12:19:16.008Z,27.20
2018-09-11T12:21:44.036Z,27.40
2018-09-11T12:24:11.726Z,27.40
2018-09-11T12:26:39.453Z,27.20
2018-09-11T12:29:07.155Z,27.40
2018-09-11T12:31:34.876Z,27.70
2018-09-11T12:34:03.568Z,27.90
2018-09-11T12:36:31.284Z,28.50
2018-09-11T12:39:00.015Z,29.20
2018-09-11T12:41:27.668Z,29.00
2018-09-11T12:43:55.409Z,29.20
2018-09-11T12:46:24.472Z,29.10
2018-09-11T12:53:48.497Z,31.00
2018-09-11T12:56:17.065Z,30.60
2018-09-11T12:58:55.032Z,30.00
2018-09-11T13:01:22.756Z,29.80
2018-09-11T13:06:17.879Z,29.80
2018-09-11T13:08:45.644Z,30.10
2018-09-11T13:11:13.289Z,30.50
2018-09-11T13:13:40.928Z,31.00
2018-09-11T13:16:08.878Z,30.30
2018-09-11T13:18:36.758Z,30.60
2018-09-11T13:21:04.494Z,31.00
2018-09-11T13:23:32.240Z,30.20
2018-09-11T13:26:14.804Z,29.80
2018-09-11T13:28:42.548Z,29.90
2018-09-11T13:31:10.216Z,30.40
2018-09-11T13:33:37.995Z,30.80
2018-09-11T13:36:05.724Z,31.60
2018-09-11T13:38:35.524Z,31.50
2018-09-11T13:41:03.230Z,31.80
2018-09-11T13:43:30.863Z,30.90
2018-09-11T13:45:58.556Z,31.00
2018-09-11T13:48:27.308Z,31.00
2018-09-11T13:50:55.056Z,33.10
2018-09-11T13:53:23.876Z,32.80
2018-09-11T13:55:51.624Z,31.00
2018-09-11T13:58:30.177Z,31.10
2018-09-11T14:00:57.858Z,30.90
2018-09-11T14:03:25.477Z,31.00
2018-09-11T14:05:53.211Z,31.20
2018-09-11T14:08:21.002Z,32.10
2018-09-11T14:10:48.620Z,32.10
2018-09-11T14:13:16.319Z,31.40
2018-09-11T14:15:44.049Z,30.80
2018-09-11T14:18:24.304Z,30.70
2018-09-11T14:20:52.025Z,30.50
2018-09-11T14:23:19.788Z,30.70
2018-09-11T14:25:47.453Z,30.80
2018-09-11T14:28:16.224Z,31.00
2018-09-11T14:30:43.959Z,31.20
2018-09-11T14:33:11.740Z,31.30
2018-09-11T14:35:39.422Z,31.30
2018-09-11T14:38:11.496Z,30.50
2018-09-11T14:40:39.252Z,30.50
2018-09-11T14:43:07.021Z,29.80
2018-09-11T14:45:34.705Z,30.70
2018-09-11T14:48:02.364Z,31.20
2018-09-11T14:50:29.911Z,31.50
2018-09-11T14:52:57.463Z,31.80
2018-09-11T14:57:52.267Z,32.20
2018-09-11T15:00:19.862Z,33.50
2018-09-11T15:05:14.695Z,33.30
2018-09-11T15:10:11.548Z,32.60
2018-09-11T15:12:46.429Z,32.90
2018-09-11T15:20:13.168Z,32.30
2018-09-11T15:22:40.749Z,33.10
2018-09-11T15:25:08.233Z,33.00
2018-09-11T15:27:35.756Z,32.80
2018-09-11T15:30:05.332Z,32.50
2018-09-11T15:32:32.912Z,31.90
2018-09-11T15:35:00.525Z,31.80
2018-09-11T15:37:28.142Z,32.00
2018-09-11T15:39:59.215Z,32.10
2018-09-11T15:42:26.766Z,31.70
2018-09-11T15:44:54.292Z,31.20
2018-09-11T15:47:21.808Z,31.10
2018-09-11T15:49:53.127Z,31.00
2018-09-11T15:52:20.685Z,30.60
2018-09-11T15:54:48.252Z,30.20
2018-09-11T15:57:15.775Z,31.10
2018-09-11T15:59:44.444Z,31.60
2018-09-11T16:02:11.963Z,31.70
2018-09-11T16:04:39.608Z,31.40
2018-09-11T16:07:07.437Z,31.20
2018-09-11T16:09:35.138Z,31.00
2018-09-11T16:12:02.837Z,31.10
2018-09-11T16:14:30.543Z,31.10
2018-09-11T16:16:58.226Z,31.30
2018-09-11T16:19:28.487Z,30.80
2018-09-11T16:21:56.182Z,30.20
2018-09-11T16:24:23.943Z,29.70
2018-09-11T16:26:51.656Z,29.60
2018-09-11T16:34:15.129Z,27.60
2018-09-11T16:39:12.092Z,27.60
2018-09-11T16:41:39.827Z,27.10
2018-09-11T16:44:07.512Z,26.70
2018-09-11T16:46:35.269Z,26.70
2018-09-11T16:49:02.976Z,26.50
2018-09-11T16:51:30.668Z,26.30
2018-09-11T16:56:25.800Z,26.20
2018-09-11T16:58:53.592Z,26.00
2018-09-11T17:01:21.272Z,26.00
2018-09-11T17:03:49.025Z,25.90
2018-09-11T17:06:16.760Z,25.80
2018-09-11T17:08:44.646Z,25.80
2018-09-11T17:11:12.159Z,25.50
2018-09-11T17:16:07.271Z,25.40
2018-09-11T17:18:35.072Z,25.30
2018-09-11T17:21:02.816Z,25.20
2018-09-11T17:23:30.525Z,25.20
2018-09-11T17:25:58.192Z,25.00
2018-09-11T17:28:26.936Z,25.00
2018-09-11T17:30:54.736Z,24.90
2018-09-11T17:33:22.492Z,24.80
2018-09-11T17:35:50.324Z,24.80
2018-09-11T17:38:23.524Z,24.70
2018-09-11T17:40:51.237Z,24.50
2018-09-11T17:43:18.952Z,24.40
2018-09-11T17:45:46.630Z,24.30
2018-09-11T17:48:24.828Z,24.10
2018-09-11T17:50:52.575Z,24.00
2018-09-11T17:53:20.267Z,23.80
2018-09-11T17:55:47.940Z,23.60
2018-09-11T17:58:23.320Z,23.50
2018-09-11T18:00:51.046Z,23.40
2018-09-11T18:03:18.724Z,23.20
2018-09-11T18:05:46.403Z,22.70
2018-09-11T18:08:23.293Z,22.40
2018-09-11T18:10:50.980Z,22.50
2018-09-11T18:13:18.753Z,22.50
2018-09-11T18:15:46.496Z,22.40
2018-09-11T18:18:14.180Z,22.30
2018-09-11T18:20:41.872Z,21.90
2018-09-11T18:23:09.564Z,21.80
2018-09-11T18:25:37.456Z,21.60
2018-09-11T18:28:05.285Z,21.20
2018-09-11T18:30:32.984Z,21.00
2018-09-11T18:35:28.085Z,20.60
2018-09-11T18:37:55.780Z,20.80
2018-09-11T18:40:23.452Z,20.80
2018-09-11T18:42:51.211Z,20.80
2018-09-11T18:45:18.839Z,20.80
2018-09-11T18:47:46.580Z,20.80
2018-09-11T18:50:18.363Z,20.80
2018-09-11T18:55:13.448Z,20.60
2018-09-11T19:00:20.823Z,20.10
2018-09-11T19:02:49.005Z,20.10
2018-09-11T19:05:16.705Z,20.10
2018-09-11T19:07:44.356Z,20.00
2018-09-11T19:10:19.893Z,19.90
2018-09-11T19:15:15.085Z,19.70
2018-09-11T19:17:42.844Z,19.50
2018-09-11T19:20:10.633Z,19.30
2018-09-11T19:22:38.276Z,19.20
2018-09-11T19:25:06.216Z,19.40
2018-09-11T19:27:33.896Z,19.50
2018-09-11T19:30:08.421Z,19.50
2018-09-11T19:32:36.088Z,19.30
2018-09-11T19:35:03.832Z,19.00
2018-09-11T19:37:31.496Z,18.90
2018-09-11T19:40:00.375Z,18.90
2018-09-11T19:42:28.081Z,18.90
2018-09-11T19:44:55.842Z,18.90
2018-09-11T19:47:23.595Z,18.70
2018-09-11T19:49:51.308Z,18.60
2018-09-11T19:52:18.983Z,18.70
2018-09-11T19:54:46.754Z,18.70
2018-09-11T19:57:14.441Z,18.50
2018-09-11T20:02:10.351Z,17.70
2018-09-11T20:04:38.132Z,17.50
2018-09-11T20:07:05.780Z,17.50
2018-09-11T20:09:37.280Z,17.50
2018-09-11T20:12:04.943Z,17.40
2018-09-11T20:14:33.174Z,17.50
2018-09-11T20:17:00.920Z,17.40
2018-09-11T20:19:46.988Z,17.40
2018-09-11T20:22:14.660Z,17.40
2018-09-11T20:24:42.468Z,17.20
2018-09-11T20:27:10.719Z,17.30
2018-09-11T20:29:45.556Z,17.40
2018-09-11T20:32:13.241Z,17.40
2018-09-11T20:34:40.962Z,17.20
2018-09-11T20:37:08.674Z,17.30
2018-09-11T20:39:43.556Z,17.30
2018-09-11T20:42:11.235Z,17.10
2018-09-11T20:47:06.318Z,16.80
2018-09-11T20:49:42.340Z,16.80
2018-09-11T20:52:10.020Z,16.80
2018-09-11T20:54:37.728Z,16.50
2018-09-11T20:57:05.454Z,16.60
2018-09-11T20:59:45.395Z,16.60
2018-09-11T21:02:13.107Z,16.60
2018-09-11T21:04:40.775Z,16.70
2018-09-11T21:07:08.319Z,16.50
2018-09-11T21:09:36.952Z,16.60
2018-09-11T21:12:04.487Z,16.70
2018-09-11T21:14:32.019Z,16.70
2018-09-11T21:16:59.568Z,16.70
2018-09-11T21:19:36.707Z,16.70
2018-09-11T21:22:04.241Z,16.60
2018-09-11T21:26:59.070Z,16.50
2018-09-11T21:29:26.629Z,16.40
2018-09-11T21:31:54.272Z,16.20
2018-09-11T21:34:21.968Z,16.00
2018-09-11T21:36:49.657Z,15.80
2018-09-11T21:39:23.098Z,15.90
2018-09-11T21:41:50.761Z,16.00
2018-09-11T21:44:18.491Z,15.90
2018-09-11T21:46:46.177Z,15.70
2018-09-11T21:49:24.039Z,15.70
2018-09-11T21:51:51.802Z,15.70
2018-09-11T21:54:19.604Z,15.70
2018-09-11T21:56:47.311Z,15.40
2018-09-11T21:59:16.012Z,15.50
2018-09-11T22:01:49.169Z,15.50
2018-09-11T22:04:17.455Z,15.50
2018-09-11T22:06:45.243Z,15.60
2018-09-11T22:09:23.101Z,15.50
2018-09-11T22:11:50.884Z,15.50
2018-09-11T22:14:18.508Z,15.50
2018-09-11T22:19:44.091Z,15.20
2018-09-11T22:22:11.811Z,15.20
2018-09-11T22:24:39.547Z,14.90
2018-09-11T22:27:07.182Z,15.00
2018-09-11T22:29:42.652Z,15.00
2018-09-11T22:32:10.745Z,15.00
2018-09-11T22:34:38.465Z,14.90
2018-09-11T22:37:06.218Z,14.80
2018-09-11T22:39:44.672Z,14.80
2018-09-11T22:42:12.387Z,14.90
2018-09-11T22:44:40.107Z,14.80
2018-09-11T22:47:07.821Z,14.70
2018-09-11T22:49:37.610Z,14.60
2018-09-11T22:52:05.324Z,14.60
2018-09-11T22:54:33.229Z,14.30
2018-09-11T22:57:00.917Z,14.20
2018-09-11T22:59:30.740Z,13.90
2018-09-11T23:01:58.471Z,13.60
2018-09-11T23:04:26.156Z,13.50
2018-09-11T23:06:53.865Z,13.70
2018-09-11T23:09:21.660Z,13.70
2018-09-11T23:11:49.380Z,13.70
2018-09-11T23:14:17.072Z,13.70
2018-09-11T23:16:44.837Z,13.80
2018-09-11T23:19:35.628Z,13.80
2018-09-11T23:22:03.327Z,13.80
2018-09-11T23:24:30.908Z,13.70
2018-09-11T23:26:58.404Z,13.80
2018-09-11T23:29:51.871Z,13.80
2018-09-11T23:32:19.384Z,13.80
2018-09-11T23:34:46.913Z,13.70
2018-09-11T23:37:14.479Z,13.80
2018-09-11T23:40:03.451Z,13.80
2018-09-11T23:42:30.996Z,13.80
2018-09-11T23:44:58.528Z,13.70
2018-09-11T23:47:26.107Z,13.70
2018-09-11T23:50:06.591Z,13.60
2018-09-11T23:52:34.124Z,13.70
2018-09-11T23:55:01.650Z,13.50
2018-09-11T23:57:29.192Z,13.30
